createdAt,value
2022-10-18T00:00:52.024Z,14.23
2022-10-18T00:03:19.078Z,12.80
2022-10-18T00:05:48.133Z,15.57
2022-10-18T00:08:16.744Z,16.27
2022-10-18T00:10:44.599Z,13.40
2022-10-18T00:13:12.384Z,16.00
2022-10-18T00:15:39.503Z,18.05
2022-10-18T00:18:06.649Z,21.33
2022-10-18T00:20:34.113Z,13.15
2022-10-18T00:23:01.131Z,12.70
2022-10-18T00:25:28.153Z,15.95
2022-10-18T00:27:55.204Z,14.43
2022-10-18T00:30:22.230Z,16.02
2022-10-18T00:32:49.269Z,16.80
2022-10-18T00:35:16.421Z,17.98
2022-10-18T00:37:43.556Z,17.88
2022-10-18T00:40:11.294Z,14.35
2022-10-18T00:42:38.642Z,16.45
2022-10-18T00:45:23.137Z,16.25
2022-10-18T00:48:00.042Z,18.23
2022-10-18T00:50:32.404Z,13.18
2022-10-18T00:53:04.968Z,15.75
2022-10-18T00:55:34.134Z,13.88
2022-10-18T00:58:02.060Z,14.95
2022-10-18T01:00:29.623Z,15.07
2022-10-18T01:02:59.507Z,14.27
2022-10-18T01:05:26.742Z,13.55
2022-10-18T01:07:57.575Z,16.38
2022-10-18T01:10:35.005Z,13.18
2022-10-18T01:13:25.980Z,16.20
2022-10-18T01:16:18.587Z,13.25
2022-10-18T01:19:04.137Z,13.25
2022-10-18T01:21:43.261Z,16.40
2022-10-18T01:24:49.662Z,14.00
2022-10-18T01:27:26.219Z,21.25
2022-10-18T01:30:20.289Z,15.95
2022-10-18T01:32:54.923Z,15.77
2022-10-18T01:35:37.835Z,14.93
2022-10-18T01:38:11.544Z,14.20
2022-10-18T01:40:41.886Z,16.08
2022-10-18T01:43:12.039Z,12.82
2022-10-18T01:45:40.170Z,15.57
2022-10-18T01:48:07.780Z,16.05
2022-10-18T01:50:35.603Z,13.18
2022-10-18T01:53:03.282Z,15.30
2022-10-18T01:56:03.138Z,16.80
2022-10-18T01:58:46.962Z,12.38
2022-10-18T02:01:53.011Z,11.68
2022-10-18T02:04:40.629Z,12.07
2022-10-18T02:07:29.745Z,11.77
2022-10-18T02:12:44.943Z,19.05
2022-10-18T02:15:17.338Z,14.07
2022-10-18T02:17:46.487Z,16.00
2022-10-18T02:20:19.863Z,15.68
2022-10-18T02:22:50.628Z,15.38
2022-10-18T02:25:23.893Z,15.70
2022-10-18T02:27:52.200Z,13.98
2022-10-18T02:30:28.977Z,11.55
2022-10-18T02:33:16.196Z,13.18
2022-10-18T02:35:52.678Z,13.77
2022-10-18T02:38:21.093Z,19.23
2022-10-18T02:40:48.126Z,15.35
2022-10-18T02:43:15.200Z,18.88
2022-10-18T02:45:42.559Z,14.52
2022-10-18T02:48:10.190Z,15.00
2022-10-18T02:50:37.244Z,19.65
2022-10-18T02:53:04.425Z,16.13
2022-10-18T02:55:31.476Z,12.65
2022-10-18T02:57:58.475Z,12.77
2022-10-18T03:00:25.531Z,13.15
2022-10-18T03:02:53.871Z,14.10
2022-10-18T03:05:21.102Z,15.32
2022-10-18T03:07:48.457Z,16.23
2022-10-18T03:10:15.565Z,22.98
2022-10-18T03:12:42.819Z,17.38
2022-10-18T03:15:10.430Z,14.38
2022-10-18T03:17:37.572Z,13.15
2022-10-18T03:20:05.162Z,13.88
2022-10-18T03:22:32.365Z,14.30
2022-10-18T03:24:59.382Z,12.15
2022-10-18T03:27:26.462Z,17.08
2022-10-18T03:29:53.496Z,15.70
2022-10-18T03:32:20.571Z,16.70
2022-10-18T03:34:47.595Z,15.43
2022-10-18T03:37:14.631Z,17.00
2022-10-18T03:39:41.678Z,17.23
2022-10-18T03:42:08.698Z,16.88
2022-10-18T03:44:35.898Z,20.20
2022-10-18T03:47:02.961Z,14.20
2022-10-18T03:49:30.046Z,14.50
2022-10-18T03:51:57.102Z,18.90
2022-10-18T03:54:24.121Z,12.95
2022-10-18T03:56:51.155Z,17.48
2022-10-18T03:59:18.497Z,23.10
2022-10-18T04:01:45.696Z,17.27
2022-10-18T04:04:12.876Z,13.95
2022-10-18T04:06:41.266Z,16.60
2022-10-18T04:09:10.240Z,17.48
2022-10-18T04:11:37.543Z,15.55
2022-10-18T04:14:04.818Z,14.45
2022-10-18T04:16:31.903Z,16.27
2022-10-18T04:18:59.054Z,15.13
2022-10-18T04:21:26.072Z,13.70
2022-10-18T04:23:53.195Z,20.27
2022-10-18T04:26:20.372Z,15.38
2022-10-18T04:28:47.429Z,16.17
2022-10-18T04:31:16.839Z,19.13
2022-10-18T04:33:43.930Z,15.73
2022-10-18T04:36:10.939Z,17.75
2022-10-18T04:38:38.017Z,14.50
2022-10-18T04:41:05.234Z,12.27
2022-10-18T04:43:32.398Z,18.08
2022-10-18T04:45:59.531Z,20.55
2022-10-18T04:48:26.847Z,13.43
2022-10-18T04:50:53.886Z,15.20
2022-10-18T04:53:21.022Z,16.17
2022-10-18T04:55:51.827Z,17.40
2022-10-18T04:58:19.654Z,20.20
2022-10-18T05:00:50.278Z,20.48
2022-10-18T05:03:17.697Z,17.95
2022-10-18T05:06:03.124Z,15.43
2022-10-18T05:08:32.981Z,19.05
2022-10-18T05:11:00.674Z,22.60
2022-10-18T05:13:27.949Z,17.42
2022-10-18T05:15:55.033Z,19.05
2022-10-18T05:18:22.161Z,17.83
2022-10-18T05:20:49.182Z,19.50
2022-10-18T05:23:16.308Z,20.52
2022-10-18T05:25:44.062Z,18.58
2022-10-18T05:28:37.989Z,17.20
2022-10-18T05:31:02.963Z,21.00
2022-10-18T05:33:30.215Z,19.77
2022-10-18T05:35:57.439Z,14.60
2022-10-18T05:38:24.743Z,19.60
2022-10-18T05:40:52.100Z,19.52
2022-10-18T05:43:19.214Z,19.73
2022-10-18T05:45:52.136Z,23.67
2022-10-18T05:48:19.617Z,22.15
2022-10-18T05:50:46.760Z,21.40
2022-10-18T05:53:35.092Z,19.20
2022-10-18T05:56:02.279Z,18.05
2022-10-18T05:58:29.462Z,23.13
2022-10-18T06:01:00.965Z,23.10
2022-10-18T06:03:30.325Z,18.65
2022-10-18T13:37:24.197Z,14.13
2022-10-18T13:40:13.434Z,14.65
2022-10-18T13:42:40.595Z,16.42
2022-10-18T13:45:32.288Z,16.30
2022-10-18T13:48:27.349Z,19.15
2022-10-18T13:51:22.513Z,16.33
2022-10-18T13:54:27.927Z,19.58
2022-10-18T13:57:22.168Z,17.63
2022-10-18T14:00:04.516Z,20.98
2022-10-18T14:02:58.618Z,21.90
2022-10-18T14:05:51.895Z,17.98
2022-10-18T14:08:35.331Z,14.75
2022-10-18T14:11:22.619Z,17.17
2022-10-18T14:14:17.023Z,18.40
2022-10-18T14:17:04.038Z,17.75
2022-10-18T14:19:39.397Z,14.23
2022-10-18T14:24:38.808Z,16.13
2022-10-18T14:27:32.557Z,15.35
2022-10-18T14:30:20.667Z,21.30
2022-10-18T14:32:52.112Z,15.82
2022-10-18T14:35:33.065Z,18.30
2022-10-18T14:38:02.192Z,16.27
2022-10-18T14:40:40.126Z,17.10
2022-10-18T14:43:12.760Z,22.55
2022-10-18T14:45:42.183Z,13.15
2022-10-18T14:48:22.700Z,16.55
2022-10-18T14:51:00.188Z,20.70
2022-10-18T14:53:38.964Z,15.80
2022-10-18T14:56:08.288Z,12.85
2022-10-18T14:58:37.492Z,19.23
2022-10-18T15:01:05.508Z,13.63
2022-10-18T15:03:35.735Z,16.15
2022-10-18T15:06:06.057Z,21.30
2022-10-18T15:08:39.917Z,15.40
2022-10-18T15:11:11.850Z,24.10
2022-10-18T15:13:55.282Z,14.35
2022-10-18T15:16:28.318Z,18.40
2022-10-18T15:19:15.030Z,14.95
2022-10-18T15:22:19.695Z,15.15
2022-10-18T15:24:44.988Z,13.93
2022-10-18T15:27:32.142Z,16.85
2022-10-18T15:30:15.288Z,19.27
2022-10-18T15:32:54.871Z,17.23
2022-10-18T15:35:35.249Z,14.65
2022-10-18T15:38:17.325Z,25.08
2022-10-18T15:40:44.637Z,22.00
2022-10-18T15:43:23.657Z,16.58
2022-10-18T15:45:51.811Z,17.10
2022-10-18T15:48:25.851Z,16.83
2022-10-18T15:50:56.905Z,16.98
2022-10-18T15:53:52.912Z,18.85
2022-10-18T15:56:32.908Z,23.58
2022-10-18T15:59:05.212Z,15.55
2022-10-18T16:01:34.982Z,16.33
2022-10-18T16:04:13.217Z,23.98
2022-10-18T16:06:41.456Z,20.50
2022-10-18T16:09:16.172Z,16.27
2022-10-18T16:11:43.426Z,18.20
2022-10-18T16:14:10.602Z,22.20
2022-10-18T16:16:39.442Z,19.90
2022-10-18T16:19:07.635Z,18.52
2022-10-18T16:21:38.776Z,17.20
2022-10-18T16:24:06.586Z,17.92
2022-10-18T16:26:35.052Z,20.02
2022-10-18T16:29:02.506Z,17.55
2022-10-18T16:31:34.032Z,18.42
2022-10-18T16:34:02.520Z,15.35
2022-10-18T16:36:33.119Z,16.83
2022-10-18T16:39:07.710Z,19.20
2022-10-18T16:41:34.861Z,18.08
2022-10-18T16:44:01.953Z,18.17
2022-10-18T16:46:31.949Z,21.83
2022-10-18T16:49:00.250Z,26.25
2022-10-18T16:51:28.455Z,30.05
2022-10-18T16:53:56.009Z,22.77
2022-10-18T16:56:30.744Z,22.58
2022-10-18T16:58:59.254Z,27.03
2022-10-18T17:01:27.696Z,21.02
2022-10-18T17:03:56.503Z,20.80
2022-10-18T17:06:28.167Z,27.73
2022-10-18T17:08:56.844Z,21.25
2022-10-18T17:11:27.739Z,22.17
2022-10-18T17:13:55.913Z,21.35
2022-10-18T17:16:37.351Z,23.85
2022-10-18T17:19:08.446Z,24.85
2022-10-18T17:21:36.076Z,19.65
2022-10-18T17:24:06.328Z,22.45
2022-10-18T17:26:34.888Z,23.88
2022-10-18T17:29:06.953Z,27.38
2022-10-18T17:31:36.064Z,24.70
2022-10-18T17:34:04.600Z,27.98
2022-10-18T17:36:33.846Z,26.73
2022-10-18T17:39:01.808Z,28.85
2022-10-18T17:41:29.958Z,33.22
2022-10-18T17:43:58.082Z,24.38
2022-10-18T17:46:26.549Z,30.77
2022-10-18T17:48:55.019Z,27.52
2022-10-18T17:51:23.942Z,23.75
2022-10-18T17:53:53.465Z,31.08
2022-10-18T17:56:21.681Z,28.30
2022-10-18T17:58:53.312Z,32.53
2022-10-18T18:01:23.869Z,33.58
2022-10-18T18:04:00.510Z,28.63
2022-10-18T18:06:34.133Z,26.48
2022-10-18T18:09:08.992Z,32.50
2022-10-18T18:11:39.981Z,36.13
2022-10-18T18:14:10.179Z,30.35
2022-10-18T18:16:43.910Z,32.83
2022-10-18T18:19:12.969Z,28.75
2022-10-18T18:21:41.825Z,31.15
2022-10-18T18:24:12.254Z,29.92
2022-10-18T18:26:42.742Z,34.22
2022-10-18T18:29:13.516Z,27.48
2022-10-18T18:31:43.621Z,32.97
2022-10-18T18:34:14.491Z,34.65
2022-10-18T18:36:43.323Z,29.20
2022-10-18T18:39:25.145Z,32.85
2022-10-18T18:41:53.647Z,37.28
2022-10-18T18:44:23.322Z,32.92
2022-10-18T18:46:51.485Z,29.02
2022-10-18T18:49:19.667Z,35.08
2022-10-18T18:51:48.035Z,37.65
2022-10-18T18:54:17.321Z,29.33
2022-10-18T18:56:45.570Z,29.30
2022-10-18T18:59:15.127Z,34.85
2022-10-18T19:01:44.731Z,31.52
2022-10-18T19:04:13.949Z,32.72
2022-10-18T19:06:46.135Z,46.70
2022-10-18T19:09:22.525Z,28.13
2022-10-18T19:11:53.937Z,40.45
2022-10-18T19:14:25.513Z,36.03
2022-10-18T19:17:01.692Z,31.08
2022-10-18T19:22:05.181Z,32.95
2022-10-18T19:24:33.487Z,34.88
2022-10-18T19:27:05.508Z,33.97
2022-10-18T19:29:37.476Z,31.92
2022-10-18T19:32:12.605Z,35.58
2022-10-18T19:34:43.595Z,29.60
2022-10-18T19:37:15.742Z,38.22
2022-10-18T19:39:45.272Z,33.67
2022-10-18T19:42:18.611Z,32.45
2022-10-18T19:44:48.657Z,31.23
2022-10-18T19:47:16.377Z,33.83
2022-10-18T19:49:44.399Z,38.90
2022-10-18T19:52:12.992Z,35.70
2022-10-18T19:54:40.500Z,32.47
2022-10-18T19:57:08.816Z,37.85
2022-10-18T20:02:17.859Z,36.42
2022-10-18T20:04:46.477Z,35.25
2022-10-18T20:07:13.995Z,30.67
2022-10-18T20:09:41.309Z,36.92
2022-10-18T20:12:08.423Z,34.28
2022-10-18T20:14:35.891Z,37.88
2022-10-18T20:17:03.239Z,31.88
2022-10-18T20:19:30.297Z,37.50
2022-10-18T20:21:58.063Z,32.75
2022-10-18T20:24:25.905Z,39.88
2022-10-18T20:29:25.677Z,32.78
2022-10-18T20:31:55.586Z,29.48
2022-10-18T20:34:25.994Z,40.33
2022-10-18T20:36:56.553Z,34.75
2022-10-18T20:39:23.889Z,35.95
2022-10-18T20:41:51.075Z,39.13
2022-10-18T20:44:19.764Z,41.08
2022-10-18T20:46:47.191Z,27.90
2022-10-18T20:49:17.010Z,20.55
2022-10-18T20:51:44.367Z,23.38
2022-10-18T20:54:13.868Z,22.40
2022-10-18T20:56:41.108Z,17.00
2022-10-18T20:59:10.302Z,18.38
2022-10-18T21:01:39.112Z,22.08
2022-10-18T21:04:09.049Z,19.77
2022-10-18T21:06:42.940Z,17.67
2022-10-18T21:09:18.045Z,21.95
2022-10-18T21:11:49.452Z,17.88
2022-10-18T21:14:20.006Z,17.58
2022-10-18T21:16:48.292Z,21.67
2022-10-18T21:19:20.526Z,16.50
2022-10-18T21:21:50.514Z,15.90
2022-10-18T21:24:19.527Z,13.20
2022-10-18T21:26:47.889Z,17.38
2022-10-18T21:29:20.778Z,15.63
2022-10-18T21:31:49.178Z,14.38
2022-10-18T21:34:17.539Z,14.68
2022-10-18T21:36:46.956Z,19.85
2022-10-18T21:41:51.718Z,11.48
2022-10-18T21:44:19.123Z,14.98
2022-10-18T21:46:46.903Z,13.05
2022-10-18T21:49:15.676Z,13.18
2022-10-18T21:51:43.674Z,14.65
2022-10-18T21:54:16.297Z,17.88
2022-10-18T21:56:43.879Z,15.23
2022-10-18T21:59:14.458Z,14.05
2022-10-18T22:01:43.603Z,15.30
2022-10-18T22:04:23.533Z,15.77
2022-10-18T22:06:51.102Z,18.92
2022-10-18T22:09:18.297Z,17.35
2022-10-18T22:11:51.721Z,14.68
2022-10-18T22:14:18.842Z,18.02
2022-10-18T22:16:46.037Z,17.23
2022-10-18T22:19:13.593Z,20.83
2022-10-18T22:21:40.651Z,13.52
2022-10-18T22:24:10.081Z,13.57
2022-10-18T22:26:40.847Z,16.70
2022-10-18T22:29:18.031Z,15.38
2022-10-18T22:31:51.953Z,12.02
2022-10-18T22:34:23.797Z,13.35
2022-10-18T22:36:51.190Z,17.13
2022-10-18T22:39:18.584Z,12.90
2022-10-18T22:41:46.654Z,14.10
2022-10-18T22:44:15.423Z,17.30
2022-10-18T22:46:42.785Z,13.02
2022-10-18T22:49:11.416Z,12.73
2022-10-18T22:51:38.529Z,13.70
2022-10-18T22:54:06.013Z,11.32
2022-10-18T22:56:33.057Z,14.15
2022-10-18T22:59:00.127Z,16.73
2022-10-18T23:01:27.235Z,14.80
2022-10-18T23:03:59.981Z,16.33
2022-10-18T23:06:30.946Z,15.55
2022-10-18T23:09:01.485Z,17.55
2022-10-18T23:11:29.357Z,16.83
2022-10-18T23:13:56.640Z,21.27
2022-10-18T23:16:24.253Z,21.40
2022-10-18T23:18:54.413Z,20.70
2022-10-18T23:21:24.378Z,25.38
2022-10-18T23:23:53.000Z,21.83
2022-10-18T23:26:23.881Z,19.38
2022-10-18T23:28:52.491Z,17.95
2022-10-18T23:31:25.052Z,20.17
2022-10-18T23:33:55.473Z,20.90
2022-10-18T23:36:23.976Z,17.00
2022-10-18T23:38:51.615Z,16.80
2022-10-18T23:41:19.346Z,15.30
2022-10-18T23:43:47.319Z,21.95
2022-10-18T23:46:16.903Z,19.15
2022-10-18T23:48:44.747Z,16.95
2022-10-18T23:51:12.054Z,17.40
2022-10-18T23:53:40.001Z,19.98
2022-10-18T23:56:13.684Z,22.20
2022-10-18T23:58:41.369Z,19.98
